sensor_id;sensor_type;location;lat;lon;timestamp;temperature;humidity
2391;DHT22;22957;50.824;4.360;2024-03-23T00:53:44;11.50;99.90
2391;DHT22;22957;50.824;4.360;2024-03-23T00:56:10;11.20;99.90
2391;DHT22;22957;50.824;4.360;2024-03-23T00:58:35;11.10;99.90
2391;DHT22;22957;50.824;4.360;2024-03-23T01:01:01;11.40;99.90
2391;DHT22;22957;50.824;4.360;2024-03-23T01:03:29;10.90;99.90
2391;DHT22;22957;50.824;4.360;2024-03-23T01:05:57;10.70;99.90
2391;DHT22;22957;50.824;4.360;2024-03-23T01:08:23;10.80;99.90
2391;DHT22;22957;50.824;4.360;2024-03-23T01:10:56;10.90;99.90
2391;DHT22;22957;50.824;4.360;2024-03-23T01:13:22;11.10;99.90
2391;DHT22;22957;50.824;4.360;2024-03-23T01:15:52;10.90;99.90
2391;DHT22;22957;50.824;4.360;2024-03-23T01:18:19;10.30;99.90
2391;DHT22;22957;50.824;4.360;2024-03-23T01:20:45;10.40;99.90
2391;DHT22;22957;50.824;4.360;2024-03-23T01:23:12;10.10;99.90
2391;DHT22;22957;50.824;4.360;2024-03-23T01:25:37;10.70;99.90
2391;DHT22;22957;50.824;4.360;2024-03-23T01:28:04;10.70;99.90
2391;DHT22;22957;50.824;4.360;2024-03-23T01:30:29;10.40;99.90
2391;DHT22;22957;50.824;4.360;2024-03-23T01:32:56;10.20;99.90
2391;DHT22;22957;50.824;4.360;2024-03-23T01:35:21;10.20;99.90
2391;DHT22;22957;50.824;4.360;2024-03-23T01:37:47;10.50;99.90
2391;DHT22;22957;50.824;4.360;2024-03-23T01:40:13;10.30;99.90
2391;DHT22;22957;50.824;4.360;2024-03-23T01:42:41;10.50;99.90
2391;DHT22;22957;50.824;4.360;2024-03-23T01:45:08;10.10;99.90
2391;DHT22;22957;50.824;4.360;2024-03-23T01:47:34;10.50;99.90
2391;DHT22;22957;50.824;4.360;2024-03-23T01:50:00;10.60;99.90
2391;DHT22;22957;50.824;4.360;2024-03-23T01:52:26;10.30;99.90
2391;DHT22;22957;50.824;4.360;2024-03-23T01:54:52;10.00;99.90
2391;DHT22;22957;50.824;4.360;2024-03-23T01:57:19;10.70;99.90
2391;DHT22;22957;50.824;4.360;2024-03-23T01:59:46;10.50;99.90
2391;DHT22;22957;50.824;4.360;2024-03-23T02:02:12;10.60;99.90
2391;DHT22;22957;50.824;4.360;2024-03-23T02:04:38;10.30;99.90
2391;DHT22;22957;50.824;4.360;2024-03-23T02:07:05;10.40;99.90
2391;DHT22;22957;50.824;4.360;2024-03-23T02:09:31;10.70;99.90
2391;DHT22;22957;50.824;4.360;2024-03-23T02:11:58;10.20;99.90
2391;DHT22;22957;50.824;4.360;2024-03-23T02:14:23;10.10;99.90
2391;DHT22;22957;50.824;4.360;2024-03-23T02:16:49;10.50;99.90
2391;DHT22;22957;50.824;4.360;2024-03-23T02:19:14;10.00;99.90
2391;DHT22;22957;50.824;4.360;2024-03-23T02:21:40;9.80;99.90
2391;DHT22;22957;50.824;4.360;2024-03-23T02:24:06;10.20;99.90
2391;DHT22;22957;50.824;4.360;2024-03-23T02:26:31;9.80;99.90
2391;DHT22;22957;50.824;4.360;2024-03-23T02:28:57;9.90;99.90
2391;DHT22;22957;50.824;4.360;2024-03-23T02:31:22;10.10;99.90
2391;DHT22;22957;50.824;4.360;2024-03-23T02:33:48;10.50;99.90
2391;DHT22;22957;50.824;4.360;2024-03-23T02:36:14;10.30;99.90
2391;DHT22;22957;50.824;4.360;2024-03-23T02:38:39;10.50;99.90
2391;DHT22;22957;50.824;4.360;2024-03-23T02:41:05;10.40;99.90
2391;DHT22;22957;50.824;4.360;2024-03-23T02:43:31;10.50;99.90
2391;DHT22;22957;50.824;4.360;2024-03-23T02:45:57;10.60;99.90
2391;DHT22;22957;50.824;4.360;2024-03-23T02:48:23;10.70;99.90
2391;DHT22;22957;50.824;4.360;2024-03-23T02:50:49;10.50;99.90
2391;DHT22;22957;50.824;4.360;2024-03-23T02:53:15;10.60;99.90
2391;DHT22;22957;50.824;4.360;2024-03-23T02:55:40;10.20;99.90
2391;DHT22;22957;50.824;4.360;2024-03-23T02:58:06;10.60;99.90
2391;DHT22;22957;50.824;4.360;2024-03-23T03:00:31;10.50;99.90
2391;DHT22;22957;50.824;4.360;2024-03-23T03:02:57;10.40;99.90
2391;DHT22;22957;50.824;4.360;2024-03-23T03:05:22;10.40;99.90
2391;DHT22;22957;50.824;4.360;2024-03-23T03:07:48;10.20;99.90
2391;DHT22;22957;50.824;4.360;2024-03-23T03:10:14;10.20;99.90
2391;DHT22;22957;50.824;4.360;2024-03-23T03:12:39;10.40;99.90
2391;DHT22;22957;50.824;4.360;2024-03-23T03:15:05;10.30;99.90
2391;DHT22;22957;50.824;4.360;2024-03-23T03:17:31;10.40;99.90
2391;DHT22;22957;50.824;4.360;2024-03-23T03:19:57;10.10;99.90
2391;DHT22;22957;50.824;4.360;2024-03-23T03:22:23;10.20;99.90
2391;DHT22;22957;50.824;4.360;2024-03-23T03:24:49;10.80;99.90
2391;DHT22;22957;50.824;4.360;2024-03-23T03:27:15;10.40;99.90
2391;DHT22;22957;50.824;4.360;2024-03-23T03:29:40;10.30;99.90
2391;DHT22;22957;50.824;4.360;2024-03-23T03:32:06;10.50;99.90
2391;DHT22;22957;50.824;4.360;2024-03-23T03:34:32;10.40;99.90
2391;DHT22;22957;50.824;4.360;2024-03-23T03:36:58;10.10;99.90
2391;DHT22;22957;50.824;4.360;2024-03-23T03:39:25;10.20;99.90
2391;DHT22;22957;50.824;4.360;2024-03-23T03:41:50;10.00;99.90
2391;DHT22;22957;50.824;4.360;2024-03-23T03:44:17;10.00;99.90
2391;DHT22;22957;50.824;4.360;2024-03-23T03:46:42;10.10;99.90
2391;DHT22;22957;50.824;4.360;2024-03-23T03:49:08;9.90;99.90
2391;DHT22;22957;50.824;4.360;2024-03-23T03:51:34;9.90;99.90
2391;DHT22;22957;50.824;4.360;2024-03-23T03:53:59;9.80;99.90
2391;DHT22;22957;50.824;4.360;2024-03-23T03:56:25;9.50;99.90
2391;DHT22;22957;50.824;4.360;2024-03-23T03:58:51;9.80;99.90
2391;DHT22;22957;50.824;4.360;2024-03-23T04:01:16;9.60;99.90
2391;DHT22;22957;50.824;4.360;2024-03-23T04:03:43;9.30;99.90
2391;DHT22;22957;50.824;4.360;2024-03-23T04:06:12;9.60;99.90
2391;DHT22;22957;50.824;4.360;2024-03-23T04:08:40;9.90;99.90
2391;DHT22;22957;50.824;4.360;2024-03-23T04:11:06;9.80;99.90
2391;DHT22;22957;50.824;4.360;2024-03-23T04:13:31;9.80;99.90
2391;DHT22;22957;50.824;4.360;2024-03-23T04:15:57;9.70;99.90
2391;DHT22;22957;50.824;4.360;2024-03-23T04:18:23;9.70;99.90
2391;DHT22;22957;50.824;4.360;2024-03-23T04:20:49;9.70;99.90
2391;DHT22;22957;50.824;4.360;2024-03-23T04:23:15;9.50;99.90
2391;DHT22;22957;50.824;4.360;2024-03-23T04:25:40;9.80;99.90
2391;DHT22;22957;50.824;4.360;2024-03-23T04:28:06;9.70;99.90
2391;DHT22;22957;50.824;4.360;2024-03-23T04:30:32;10.00;99.90
2391;DHT22;22957;50.824;4.360;2024-03-23T04:32:57;10.00;99.90
2391;DHT22;22957;50.824;4.360;2024-03-23T04:35:24;9.80;99.90
2391;DHT22;22957;50.824;4.360;2024-03-23T04:37:51;10.20;99.90
2391;DHT22;22957;50.824;4.360;2024-03-23T04:40:21;9.90;99.90
2391;DHT22;22957;50.824;4.360;2024-03-23T04:42:46;9.90;99.90
2391;DHT22;22957;50.824;4.360;2024-03-23T04:45:12;10.00;99.90
2391;DHT22;22957;50.824;4.360;2024-03-23T04:47:38;10.00;99.90
2391;DHT22;22957;50.824;4.360;2024-03-23T04:50:04;9.90;99.90
2391;DHT22;22957;50.824;4.360;2024-03-23T04:52:30;9.90;99.90
2391;DHT22;22957;50.824;4.360;2024-03-23T04:54:56;10.00;99.90
2391;DHT22;22957;50.824;4.360;2024-03-23T04:57:22;9.90;99.90
2391;DHT22;22957;50.824;4.360;2024-03-23T04:59:47;10.00;99.90
2391;DHT22;22957;50.824;4.360;2024-03-23T05:02:14;10.00;99.90
2391;DHT22;22957;50.824;4.360;2024-03-23T05:04:40;10.20;99.90
2391;DHT22;22957;50.824;4.360;2024-03-23T05:07:08;9.80;99.90
2391;DHT22;22957;50.824;4.360;2024-03-23T05:09:34;10.00;99.90
2391;DHT22;22957;50.824;4.360;2024-03-23T05:12:00;9.70;99.90
2391;DHT22;22957;50.824;4.360;2024-03-23T05:14:26;9.50;99.90
2391;DHT22;22957;50.824;4.360;2024-03-23T05:16:52;9.60;99.90
2391;DHT22;22957;50.824;4.360;2024-03-23T05:19:17;9.30;99.90
2391;DHT22;22957;50.824;4.360;2024-03-23T05:21:43;9.50;99.90
2391;DHT22;22957;50.824;4.360;2024-03-23T05:24:09;9.40;99.90
2391;DHT22;22957;50.824;4.360;2024-03-23T05:26:35;9.40;99.90
2391;DHT22;22957;50.824;4.360;2024-03-23T05:29:01;9.10;99.90
2391;DHT22;22957;50.824;4.360;2024-03-23T05:31:28;9.10;99.90
2391;DHT22;22957;50.824;4.360;2024-03-23T05:33:55;9.70;99.90
2391;DHT22;22957;50.824;4.360;2024-03-23T05:36:20;9.30;99.90
2391;DHT22;22957;50.824;4.360;2024-03-23T05:38:46;9.30;99.90
2391;DHT22;22957;50.824;4.360;2024-03-23T05:41:12;9.40;99.90
2391;DHT22;22957;50.824;4.360;2024-03-23T05:43:37;9.20;99.90
2391;DHT22;22957;50.824;4.360;2024-03-23T05:46:03;9.20;99.90
2391;DHT22;22957;50.824;4.360;2024-03-23T05:48:31;9.20;99.90
2391;DHT22;22957;50.824;4.360;2024-03-23T05:50:57;9.20;99.90
2391;DHT22;22957;50.824;4.360;2024-03-23T05:53:24;9.20;99.90
2391;DHT22;22957;50.824;4.360;2024-03-23T05:55:59;9.10;99.90
2391;DHT22;22957;50.824;4.360;2024-03-23T05:58:25;9.00;99.90
2391;DHT22;22957;50.824;4.360;2024-03-23T06:00:57;9.30;99.90
2391;DHT22;22957;50.824;4.360;2024-03-23T06:03:23;9.50;99.90
2391;DHT22;22957;50.824;4.360;2024-03-23T06:05:49;9.70;99.90
2391;DHT22;22957;50.824;4.360;2024-03-23T06:08:14;9.60;99.90
2391;DHT22;22957;50.824;4.360;2024-03-23T06:10:40;9.70;99.90
2391;DHT22;22957;50.824;4.360;2024-03-23T06:13:06;10.00;99.90
2391;DHT22;22957;50.824;4.360;2024-03-23T06:15:31;10.00;99.90
2391;DHT22;22957;50.824;4.360;2024-03-23T06:17:57;9.60;99.90
2391;DHT22;22957;50.824;4.360;2024-03-23T06:20:23;9.60;99.90
2391;DHT22;22957;50.824;4.360;2024-03-23T06:22:49;9.80;99.90
2391;DHT22;22957;50.824;4.360;2024-03-23T06:25:15;9.90;99.90
2391;DHT22;22957;50.824;4.360;2024-03-23T06:27:40;9.90;99.90
2391;DHT22;22957;50.824;4.360;2024-03-23T06:30:06;9.80;99.90
2391;DHT22;22957;50.824;4.360;2024-03-23T06:32:33;10.00;99.90
2391;DHT22;22957;50.824;4.360;2024-03-23T06:34:59;9.70;99.90
2391;DHT22;22957;50.824;4.360;2024-03-23T06:37:25;9.60;99.90
2391;DHT22;22957;50.824;4.360;2024-03-23T06:39:51;9.90;99.90
2391;DHT22;22957;50.824;4.360;2024-03-23T06:42:16;9.90;99.90
2391;DHT22;22957;50.824;4.360;2024-03-23T06:44:43;10.00;99.90
2391;DHT22;22957;50.824;4.360;2024-03-23T06:47:08;10.00;99.90
2391;DHT22;22957;50.824;4.360;2024-03-23T06:49:34;9.80;99.90
2391;DHT22;22957;50.824;4.360;2024-03-23T06:52:00;9.80;99.90
2391;DHT22;22957;50.824;4.360;2024-03-23T06:54:26;9.80;99.90
2391;DHT22;22957;50.824;4.360;2024-03-23T06:56:52;9.90;99.90
2391;DHT22;22957;50.824;4.360;2024-03-23T06:59:17;9.70;99.90
2391;DHT22;22957;50.824;4.360;2024-03-23T07:01:43;10.00;99.90
2391;DHT22;22957;50.824;4.360;2024-03-23T07:04:08;10.00;99.90
2391;DHT22;22957;50.824;4.360;2024-03-23T07:06:34;10.00;99.90
2391;DHT22;22957;50.824;4.360;2024-03-23T07:09:00;10.00;99.90
2391;DHT22;22957;50.824;4.360;2024-03-23T07:11:25;9.90;99.90
2391;DHT22;22957;50.824;4.360;2024-03-23T07:13:53;10.30;99.90
2391;DHT22;22957;50.824;4.360;2024-03-23T07:16:22;10.20;99.90
2391;DHT22;22957;50.824;4.360;2024-03-23T07:18:47;9.90;99.90
2391;DHT22;22957;50.824;4.360;2024-03-23T07:21:15;9.50;99.90
2391;DHT22;22957;50.824;4.360;2024-03-23T07:23:43;9.40;99.90
2391;DHT22;22957;50.824;4.360;2024-03-23T07:26:10;9.00;99.90
2391;DHT22;22957;50.824;4.360;2024-03-23T07:28:36;8.90;99.90
2391;DHT22;22957;50.824;4.360;2024-03-23T07:31:13;9.30;99.90
2391;DHT22;22957;50.824;4.360;2024-03-23T07:33:43;9.60;99.90
2391;DHT22;22957;50.824;4.360;2024-03-23T07:36:09;10.60;99.90
2391;DHT22;22957;50.824;4.360;2024-03-23T07:38:35;11.20;99.90
2391;DHT22;22957;50.824;4.360;2024-03-23T07:41:05;11.20;99.90
2391;DHT22;22957;50.824;4.360;2024-03-23T07:43:31;11.40;99.90
2391;DHT22;22957;50.824;4.360;2024-03-23T07:45:57;11.90;99.90
2391;DHT22;22957;50.824;4.360;2024-03-23T07:48:22;11.90;99.90
2391;DHT22;22957;50.824;4.360;2024-03-23T07:53:21;11.90;99.90
2391;DHT22;22957;50.824;4.360;2024-03-23T07:55:57;11.90;99.90
2391;DHT22;22957;50.824;4.360;2024-03-23T07:58:23;12.80;99.90
2391;DHT22;22957;50.824;4.360;2024-03-23T08:00:49;12.30;99.90
2391;DHT22;22957;50.824;4.360;2024-03-23T08:03:14;12.40;99.90
2391;DHT22;22957;50.824;4.360;2024-03-23T08:05:40;13.10;99.90
2391;DHT22;22957;50.824;4.360;2024-03-23T08:08:06;13.00;99.90
2391;DHT22;22957;50.824;4.360;2024-03-23T08:10:31;12.70;99.90
2391;DHT22;22957;50.824;4.360;2024-03-23T08:12:57;12.50;99.90
2391;DHT22;22957;50.824;4.360;2024-03-23T08:15:22;13.00;99.90
2391;DHT22;22957;50.824;4.360;2024-03-23T08:17:49;12.90;99.90
2391;DHT22;22957;50.824;4.360;2024-03-23T08:20:15;12.90;99.90
2391;DHT22;22957;50.824;4.360;2024-03-23T08:22:40;12.40;99.90
2391;DHT22;22957;50.824;4.360;2024-03-23T08:25:06;12.60;99.90
2391;DHT22;22957;50.824;4.360;2024-03-23T08:27:32;11.90;99.90
2391;DHT22;22957;50.824;4.360;2024-03-23T08:29:58;12.00;99.90
2391;DHT22;22957;50.824;4.360;2024-03-23T08:32:24;11.80;99.90
2391;DHT22;22957;50.824;4.360;2024-03-23T08:34:49;11.60;99.90
2391;DHT22;22957;50.824;4.360;2024-03-23T08:37:15;11.40;99.90
2391;DHT22;22957;50.824;4.360;2024-03-23T08:39:43;11.20;99.90
2391;DHT22;22957;50.824;4.360;2024-03-23T08:42:08;11.80;99.90
2391;DHT22;22957;50.824;4.360;2024-03-23T08:44:34;11.90;99.90
2391;DHT22;22957;50.824;4.360;2024-03-23T08:47:01;11.80;99.90
2391;DHT22;22957;50.824;4.360;2024-03-23T08:49:26;11.40;99.90
2391;DHT22;22957;50.824;4.360;2024-03-23T08:51:52;11.10;99.90
2391;DHT22;22957;50.824;4.360;2024-03-23T08:54:18;11.30;99.90
2391;DHT22;22957;50.824;4.360;2024-03-23T08:56:45;11.20;99.90
2391;DHT22;22957;50.824;4.360;2024-03-23T08:59:11;12.10;99.90
2391;DHT22;22957;50.824;4.360;2024-03-23T09:01:37;12.50;99.90
2391;DHT22;22957;50.824;4.360;2024-03-23T09:04:03;13.50;99.90
2391;DHT22;22957;50.824;4.360;2024-03-23T09:06:29;13.60;99.90
2391;DHT22;22957;50.824;4.360;2024-03-23T09:08:55;14.30;99.90
2391;DHT22;22957;50.824;4.360;2024-03-23T09:11:21;14.50;99.90
2391;DHT22;22957;50.824;4.360;2024-03-23T09:13:47;13.50;99.90
2391;DHT22;22957;50.824;4.360;2024-03-23T09:16:12;13.70;99.90
2391;DHT22;22957;50.824;4.360;2024-03-23T09:18:38;14.20;99.90
2391;DHT22;22957;50.824;4.360;2024-03-23T09:21:10;13.90;99.90
2391;DHT22;22957;50.824;4.360;2024-03-23T09:23:36;13.70;99.90
2391;DHT22;22957;50.824;4.360;2024-03-23T09:26:05;13.10;99.90
2391;DHT22;22957;50.824;4.360;2024-03-23T09:28:33;12.90;99.90
2391;DHT22;22957;50.824;4.360;2024-03-23T09:31:08;13.40;99.90
2391;DHT22;22957;50.824;4.360;2024-03-23T09:33:35;14.40;99.90
2391;DHT22;22957;50.824;4.360;2024-03-23T09:36:04;14.30;99.90
2391;DHT22;22957;50.824;4.360;2024-03-23T09:38:30;13.70;99.90
2391;DHT22;22957;50.824;4.360;2024-03-23T09:40:57;14.00;99.90
2391;DHT22;22957;50.824;4.360;2024-03-23T09:43:22;14.00;99.90
2391;DHT22;22957;50.824;4.360;2024-03-23T09:45:49;14.50;99.90
2391;DHT22;22957;50.824;4.360;2024-03-23T09:48:15;13.80;99.90
2391;DHT22;22957;50.824;4.360;2024-03-23T09:50:42;14.80;99.90
2391;DHT22;22957;50.824;4.360;2024-03-23T09:53:09;15.20;99.90
2391;DHT22;22957;50.824;4.360;2024-03-23T09:55:35;15.90;99.90
2391;DHT22;22957;50.824;4.360;2024-03-23T09:58:02;16.50;99.90
2391;DHT22;22957;50.824;4.360;2024-03-23T10:00:28;16.30;99.90
2391;DHT22;22957;50.824;4.360;2024-03-23T10:02:56;15.60;99.90
2391;DHT22;22957;50.824;4.360;2024-03-23T10:05:27;15.20;99.90
2391;DHT22;22957;50.824;4.360;2024-03-23T10:07:53;15.70;99.90
2391;DHT22;22957;50.824;4.360;2024-03-23T10:10:19;15.70;99.90
2391;DHT22;22957;50.824;4.360;2024-03-23T10:12:49;16.00;99.90
2391;DHT22;22957;50.824;4.360;2024-03-23T10:15:23;15.80;99.90
2391;DHT22;22957;50.824;4.360;2024-03-23T10:17:49;16.20;99.90
2391;DHT22;22957;50.824;4.360;2024-03-23T10:20:24;16.90;99.90
2391;DHT22;22957;50.824;4.360;2024-03-23T10:22:50;16.00;99.90
2391;DHT22;22957;50.824;4.360;2024-03-23T10:25:24;15.50;99.90
2391;DHT22;22957;50.824;4.360;2024-03-23T10:28:00;14.00;99.90
2391;DHT22;22957;50.824;4.360;2024-03-23T10:30:29;14.00;99.90
2391;DHT22;22957;50.824;4.360;2024-03-23T10:33:10;13.90;99.90
2391;DHT22;22957;50.824;4.360;2024-03-23T10:35:39;14.20;99.90
2391;DHT22;22957;50.824;4.360;2024-03-23T10:38:06;14.60;99.90
2391;DHT22;22957;50.824;4.360;2024-03-23T10:40:37;14.80;99.90
2391;DHT22;22957;50.824;4.360;2024-03-23T10:43:06;15.50;99.90
2391;DHT22;22957;50.824;4.360;2024-03-23T10:45:33;15.50;99.90
2391;DHT22;22957;50.824;4.360;2024-03-23T10:47:59;15.80;99.90
2391;DHT22;22957;50.824;4.360;2024-03-23T10:50:25;15.10;99.90
2391;DHT22;22957;50.824;4.360;2024-03-23T10:52:53;15.30;99.90
2391;DHT22;22957;50.824;4.360;2024-03-23T10:55:19;15.70;99.90
2391;DHT22;22957;50.824;4.360;2024-03-23T10:57:51;15.60;99.90
2391;DHT22;22957;50.824;4.360;2024-03-23T11:00:17;15.90;99.90
2391;DHT22;22957;50.824;4.360;2024-03-23T11:02:43;16.60;99.90
2391;DHT22;22957;50.824;4.360;2024-03-23T11:05:30;16.90;99.90
2391;DHT22;22957;50.824;4.360;2024-03-23T11:07:56;15.60;99.90
2391;DHT22;22957;50.824;4.360;2024-03-23T11:10:26;15.80;99.90
2391;DHT22;22957;50.824;4.360;2024-03-23T11:12:53;16.00;99.90
2391;DHT22;22957;50.824;4.360;2024-03-23T11:15:19;17.10;99.90
2391;DHT22;22957;50.824;4.360;2024-03-23T11:18:04;16.90;99.70
2391;DHT22;22957;50.824;4.360;2024-03-23T11:20:35;15.30;99.90
2391;DHT22;22957;50.824;4.360;2024-03-23T11:23:00;14.40;99.90
2391;DHT22;22957;50.824;4.360;2024-03-23T11:25:27;14.00;99.90
2391;DHT22;22957;50.824;4.360;2024-03-23T11:27:55;14.00;99.90
2391;DHT22;22957;50.824;4.360;2024-03-23T11:30:23;13.90;99.90
2391;DHT22;22957;50.824;4.360;2024-03-23T11:32:54;14.70;99.90
2391;DHT22;22957;50.824;4.360;2024-03-23T11:35:31;13.60;99.90
2391;DHT22;22957;50.824;4.360;2024-03-23T11:40:32;14.00;99.90
2391;DHT22;22957;50.824;4.360;2024-03-23T11:43:00;13.40;99.90
2391;DHT22;22957;50.824;4.360;2024-03-23T11:45:26;13.90;99.90
2391;DHT22;22957;50.824;4.360;2024-03-23T11:48:22;13.40;99.90
2391;DHT22;22957;50.824;4.360;2024-03-23T11:50:50;13.40;99.90
2391;DHT22;22957;50.824;4.360;2024-03-23T11:53:18;13.90;99.90
2391;DHT22;22957;50.824;4.360;2024-03-23T11:55:50;14.90;99.90
2391;DHT22;22957;50.824;4.360;2024-03-23T11:58:21;14.40;99.90
2391;DHT22;22957;50.824;4.360;2024-03-23T12:01:03;14.20;99.90
2391;DHT22;22957;50.824;4.360;2024-03-23T12:03:30;14.40;99.90
2391;DHT22;22957;50.824;4.360;2024-03-23T12:05:59;14.00;99.90
2391;DHT22;22957;50.824;4.360;2024-03-23T12:08:32;14.00;99.90
2391;DHT22;22957;50.824;4.360;2024-03-23T12:11:17;13.70;99.90
2391;DHT22;22957;50.824;4.360;2024-03-23T12:13:44;13.60;99.90
2391;DHT22;22957;50.824;4.360;2024-03-23T12:16:18;13.90;99.90
2391;DHT22;22957;50.824;4.360;2024-03-23T12:18:49;13.90;99.90
2391;DHT22;22957;50.824;4.360;2024-03-23T12:21:16;13.40;99.90
2391;DHT22;22957;50.824;4.360;2024-03-23T12:23:43;13.40;99.90
2391;DHT22;22957;50.824;4.360;2024-03-23T12:26:10;14.10;99.90
2391;DHT22;22957;50.824;4.360;2024-03-23T12:28:37;14.20;99.90
2391;DHT22;22957;50.824;4.360;2024-03-23T12:31:03;14.00;99.90
2391;DHT22;22957;50.824;4.360;2024-03-23T12:33:28;13.50;99.90
2391;DHT22;22957;50.824;4.360;2024-03-23T12:35:54;13.10;99.90
2391;DHT22;22957;50.824;4.360;2024-03-23T12:38:20;13.00;99.90
2391;DHT22;22957;50.824;4.360;2024-03-23T12:40:51;12.90;99.90
2391;DHT22;22957;50.824;4.360;2024-03-23T12:43:18;12.80;99.90
2391;DHT22;22957;50.824;4.360;2024-03-23T12:45:50;13.50;99.90
2391;DHT22;22957;50.824;4.360;2024-03-23T12:48:16;14.20;99.90
2391;DHT22;22957;50.824;4.360;2024-03-23T12:50:42;14.50;99.90
2391;DHT22;22957;50.824;4.360;2024-03-23T12:53:07;14.70;99.90
2391;DHT22;22957;50.824;4.360;2024-03-23T12:55:36;14.30;99.90
2391;DHT22;22957;50.824;4.360;2024-03-23T12:58:02;14.50;99.90
2391;DHT22;22957;50.824;4.360;2024-03-23T13:00:28;14.80;99.90
2391;DHT22;22957;50.824;4.360;2024-03-23T13:02:54;14.90;98.20
2391;DHT22;22957;50.824;4.360;2024-03-23T13:05:19;14.50;98.00
2391;DHT22;22957;50.824;4.360;2024-03-23T13:07:45;14.20;97.90
2391;DHT22;22957;50.824;4.360;2024-03-23T13:10:10;14.60;98.70
2391;DHT22;22957;50.824;4.360;2024-03-23T13:12:36;14.40;98.70
2391;DHT22;22957;50.824;4.360;2024-03-23T13:15:02;14.50;97.80
2391;DHT22;22957;50.824;4.360;2024-03-23T13:17:28;14.20;98.20
2391;DHT22;22957;50.824;4.360;2024-03-23T13:19:54;15.10;98.80
2391;DHT22;22957;50.824;4.360;2024-03-23T13:22:21;15.70;98.70
2391;DHT22;22957;50.824;4.360;2024-03-23T13:24:46;14.30;97.10
2391;DHT22;22957;50.824;4.360;2024-03-23T13:27:12;14.30;98.70
2391;DHT22;22957;50.824;4.360;2024-03-23T13:29:37;15.20;98.60
2391;DHT22;22957;50.824;4.360;2024-03-23T13:32:03;15.80;98.20
2391;DHT22;22957;50.824;4.360;2024-03-23T13:34:29;16.10;98.00
2391;DHT22;22957;50.824;4.360;2024-03-23T13:36:55;15.50;97.20
2391;DHT22;22957;50.824;4.360;2024-03-23T13:39:23;16.30;96.60
2391;DHT22;22957;50.824;4.360;2024-03-23T13:41:49;15.60;96.40
2391;DHT22;22957;50.824;4.360;2024-03-23T13:44:14;14.70;96.80
2391;DHT22;22957;50.824;4.360;2024-03-23T13:46:42;15.20;97.80
2391;DHT22;22957;50.824;4.360;2024-03-23T13:49:28;14.80;97.90
2391;DHT22;22957;50.824;4.360;2024-03-23T13:51:55;14.20;99.00
2391;DHT22;22957;50.824;4.360;2024-03-23T13:54:21;13.70;99.30
2391;DHT22;22957;50.824;4.360;2024-03-23T13:56:56;14.00;98.90
2391;DHT22;22957;50.824;4.360;2024-03-23T13:59:22;14.20;99.50
2391;DHT22;22957;50.824;4.360;2024-03-23T14:01:51;14.00;99.70
2391;DHT22;22957;50.824;4.360;2024-03-23T14:04:17;13.90;99.90
2391;DHT22;22957;50.824;4.360;2024-03-23T14:06:44;14.20;99.90
2391;DHT22;22957;50.824;4.360;2024-03-23T14:09:13;13.70;99.90
2391;DHT22;22957;50.824;4.360;2024-03-23T14:11:40;14.00;99.90
2391;DHT22;22957;50.824;4.360;2024-03-23T14:14:08;14.50;99.90
2391;DHT22;22957;50.824;4.360;2024-03-23T14:16:34;14.00;99.40
2391;DHT22;22957;50.824;4.360;2024-03-23T14:19:00;13.40;99.70
2391;DHT22;22957;50.824;4.360;2024-03-23T14:21:26;13.90;99.90
2391;DHT22;22957;50.824;4.360;2024-03-23T14:23:51;14.40;99.90
2391;DHT22;22957;50.824;4.360;2024-03-23T14:26:17;15.10;99.90
2391;DHT22;22957;50.824;4.360;2024-03-23T14:28:43;14.40;99.70
2391;DHT22;22957;50.824;4.360;2024-03-23T14:31:08;14.60;99.30
2391;DHT22;22957;50.824;4.360;2024-03-23T14:33:39;15.20;98.90
2391;DHT22;22957;50.824;4.360;2024-03-23T14:36:15;14.20;99.90
2391;DHT22;22957;50.824;4.360;2024-03-23T14:38:41;13.70;99.30
2391;DHT22;22957;50.824;4.360;2024-03-23T14:41:07;14.00;99.90
2391;DHT22;22957;50.824;4.360;2024-03-23T14:43:33;14.20;99.60
2391;DHT22;22957;50.824;4.360;2024-03-23T14:46:13;14.40;99.60
2391;DHT22;22957;50.824;4.360;2024-03-23T14:48:40;14.00;99.90
2391;DHT22;22957;50.824;4.360;2024-03-23T14:51:07;14.10;99.90
2391;DHT22;22957;50.824;4.360;2024-03-23T14:53:36;14.40;99.30
2391;DHT22;22957;50.824;4.360;2024-03-23T14:56:03;14.40;99.10
2391;DHT22;22957;50.824;4.360;2024-03-23T14:58:29;14.50;98.80
2391;DHT22;22957;50.824;4.360;2024-03-23T15:01:06;13.90;99.20
2391;DHT22;22957;50.824;4.360;2024-03-23T15:03:38;14.30;99.50
2391;DHT22;22957;50.824;4.360;2024-03-23T15:06:05;14.50;99.30
2391;DHT22;22957;50.824;4.360;2024-03-23T15:08:30;14.40;99.90
2391;DHT22;22957;50.824;4.360;2024-03-23T15:11:02;13.60;99.90
2391;DHT22;22957;50.824;4.360;2024-03-23T15:13:35;13.50;99.90
2391;DHT22;22957;50.824;4.360;2024-03-23T15:16:01;13.40;99.90
2391;DHT22;22957;50.824;4.360;2024-03-23T15:18:29;13.80;99.90
2391;DHT22;22957;50.824;4.360;2024-03-23T15:20:56;13.90;99.90
2391;DHT22;22957;50.824;4.360;2024-03-23T15:23:22;13.70;99.90
2391;DHT22;22957;50.824;4.360;2024-03-23T15:26:01;14.10;99.90
2391;DHT22;22957;50.824;4.360;2024-03-23T15:28:28;13.80;99.90
2391;DHT22;22957;50.824;4.360;2024-03-23T15:31:28;13.30;99.90
2391;DHT22;22957;50.824;4.360;2024-03-23T15:33:57;13.00;99.90
2391;DHT22;22957;50.824;4.360;2024-03-23T15:36:22;12.90;99.90
2391;DHT22;22957;50.824;4.360;2024-03-23T15:38:48;12.90;99.90
2391;DHT22;22957;50.824;4.360;2024-03-23T15:41:14;13.10;99.90
2391;DHT22;22957;50.824;4.360;2024-03-23T15:43:40;13.20;99.90
2391;DHT22;22957;50.824;4.360;2024-03-23T15:46:07;13.20;99.90
2391;DHT22;22957;50.824;4.360;2024-03-23T15:48:33;13.10;99.90
2391;DHT22;22957;50.824;4.360;2024-03-23T15:51:02;13.70;99.90
2391;DHT22;22957;50.824;4.360;2024-03-23T15:53:30;13.80;99.90
2391;DHT22;22957;50.824;4.360;2024-03-23T15:56:03;14.40;99.90
2391;DHT22;22957;50.824;4.360;2024-03-23T15:58:32;14.70;99.90
2391;DHT22;22957;50.824;4.360;2024-03-23T16:01:05;14.70;99.90
2391;DHT22;22957;50.824;4.360;2024-03-23T16:03:32;14.80;98.90
2391;DHT22;22957;50.824;4.360;2024-03-23T16:06:04;14.80;99.00
2391;DHT22;22957;50.824;4.360;2024-03-23T16:08:30;14.80;98.20
2391;DHT22;22957;50.824;4.360;2024-03-23T16:11:06;13.60;96.90
2391;DHT22;22957;50.824;4.360;2024-03-23T16:13:33;13.70;97.60
2391;DHT22;22957;50.824;4.360;2024-03-23T16:16:03;13.70;97.70
2391;DHT22;22957;50.824;4.360;2024-03-23T16:18:32;13.80;97.60
2391;DHT22;22957;50.824;4.360;2024-03-23T16:20:59;13.60;97.50
2391;DHT22;22957;50.824;4.360;2024-03-23T16:23:25;13.60;98.40
2391;DHT22;22957;50.824;4.360;2024-03-23T16:25:52;13.50;98.40
2391;DHT22;22957;50.824;4.360;2024-03-23T16:28:28;13.70;97.60
2391;DHT22;22957;50.824;4.360;2024-03-23T16:31:04;13.60;98.20
2391;DHT22;22957;50.824;4.360;2024-03-23T16:33:31;13.40;97.70
2391;DHT22;22957;50.824;4.360;2024-03-23T16:38:30;13.30;97.20
2391;DHT22;22957;50.824;4.360;2024-03-23T16:41:03;13.10;97.30
2391;DHT22;22957;50.824;4.360;2024-03-23T16:43:30;13.30;97.80
2391;DHT22;22957;50.824;4.360;2024-03-23T16:46:02;13.40;98.10
2391;DHT22;22957;50.824;4.360;2024-03-23T16:48:29;13.40;97.90
2391;DHT22;22957;50.824;4.360;2024-03-23T16:50:59;13.60;97.30